Time;durP1;ratioP1;P1;durP2;ratioP2;P2;SDS_P1;SDS_P2;PMS_P1;PMS_P2;Temp;Humidity;BMP_temperature;BMP_pressure;BME280_temperature;BME280_humidity;BME280_pressure;Samples;Min_cycle;Max_cycle;Signal;HPM_P1;HPM_P2
2021/12/07 00:00:22;;;;;;;14.80;11.50;;;2.50;99.90;;;;;;5054062;28;20178;-86
2021/12/07 00:02:49;;;;;;;15.87;12.40;;;2.40;99.90;;;;;;5052770;28;20174;-86
2021/12/07 00:05:15;;;;;;;15.00;11.73;;;2.40;99.90;;;;;;5052961;28;20178;-86
2021/12/07 00:07:43;;;;;;;15.00;11.37;;;2.40;99.90;;;;;;5052749;28;20189;-86
2021/12/07 00:10:09;;;;;;;14.40;11.57;;;2.40;99.90;;;;;;5052762;28;20181;-86
2021/12/07 00:12:39;;;;;;;17.10;12.33;;;2.40;99.90;;;;;;5052723;28;20236;-86
2021/12/07 00:15:06;;;;;;;16.40;11.67;;;2.40;99.90;;;;;;5052351;28;20209;-86
2021/12/07 00:17:32;;;;;;;17.67;13.13;;;2.40;99.90;;;;;;5052398;28;20185;-86
2021/12/07 00:19:59;;;;;;;15.37;12.00;;;2.40;99.90;;;;;;5052481;28;20178;-86
2021/12/07 00:22:25;;;;;;;17.00;12.27;;;2.40;99.90;;;;;;5052419;28;20186;-86
2021/12/07 00:24:51;;;;;;;16.73;12.80;;;2.40;99.90;;;;;;5053299;28;20178;-84
2021/12/07 00:27:17;;;;;;;17.87;12.77;;;2.40;99.90;;;;;;5052420;28;20200;-84
2021/12/07 00:29:43;;;;;;;16.10;12.60;;;2.40;99.90;;;;;;5053913;28;20261;-84
2021/12/07 00:37:29;;;;;;;17.97;13.13;;;2.40;99.90;;;;;;5053910;28;20219;-85
2021/12/07 00:39:56;;;;;;;17.30;13.17;;;2.50;99.90;;;;;;5053010;28;20178;-85
2021/12/07 00:42:22;;;;;;;19.60;13.90;;;2.40;99.90;;;;;;5053614;28;20178;-85
2021/12/07 00:44:48;;;;;;;17.97;14.20;;;2.40;99.90;;;;;;5053118;28;20185;-85
2021/12/07 00:47:14;;;;;;;19.20;14.23;;;2.40;99.90;;;;;;5053204;28;20198;-85
2021/12/07 00:49:41;;;;;;;18.43;14.03;;;2.30;99.90;;;;;;5052212;28;20204;-85
2021/12/07 00:52:06;;;;;;;18.07;14.10;;;2.30;99.90;;;;;;5052196;28;20267;-85
2021/12/07 00:54:32;;;;;;;17.73;13.77;;;2.40;99.90;;;;;;5052124;28;20258;-84
2021/12/07 00:56:58;;;;;;;20.67;14.50;;;2.40;99.90;;;;;;5052181;28;20194;-84
2021/12/07 00:59:25;;;;;;;18.67;13.50;;;2.50;99.90;;;;;;5053079;28;20185;-84
2021/12/07 01:01:51;;;;;;;18.90;15.03;;;2.50;99.90;;;;;;5052173;28;20170;-84
2021/12/07 01:04:17;;;;;;;19.93;14.97;;;2.50;99.90;;;;;;5052620;28;20188;-84
2021/12/07 01:09:19;;;;;;;19.30;15.03;;;2.50;99.90;;;;;;5054075;28;20174;-85
2021/12/07 01:25:37;;;;;;;20.50;14.63;;;2.70;99.90;;;;;;5053476;28;20205;-85
2021/12/07 01:28:13;;;;;;;18.83;14.47;;;2.70;99.90;;;;;;5051947;28;20182;-85
2021/12/07 01:30:47;;;;;;;19.63;14.53;;;2.70;99.90;;;;;;5052096;28;20196;-86
2021/12/07 01:33:42;;;;;;;17.43;13.67;;;2.70;99.90;;;;;;5051997;28;20185;-85
2021/12/07 01:36:40;;;;;;;20.87;14.67;;;2.70;99.90;;;;;;5051658;28;20223;-86
2021/12/07 01:59:47;;;;;;;21.73;15.50;;;2.70;99.90;;;;;;5053285;28;20207;-84
2021/12/07 02:02:16;;;;;;;21.90;15.60;;;2.60;99.90;;;;;;5054090;28;20268;-84
2021/12/07 02:04:42;;;;;;;20.70;15.93;;;2.70;99.90;;;;;;5056850;28;20328;-84
2021/12/07 02:07:09;;;;;;;22.00;16.13;;;2.60;99.90;;;;;;5056210;28;20213;-84
2021/12/07 02:09:37;;;;;;;19.50;14.80;;;2.70;99.90;;;;;;5055569;28;20208;-84
2021/12/07 02:12:06;;;;;;;22.03;16.63;;;2.60;99.90;;;;;;5055555;28;20724;-85
2021/12/07 02:14:32;;;;;;;20.93;15.27;;;2.60;99.90;;;;;;5057320;28;20206;-85
2021/12/07 02:17:02;;;;;;;21.77;15.50;;;2.60;99.90;;;;;;5056059;28;20209;-85
2021/12/07 02:19:27;;;;;;;21.50;16.33;;;2.50;99.90;;;;;;5056976;28;20182;-84
2021/12/07 02:21:57;;;;;;;21.70;16.13;;;2.50;99.90;;;;;;5056035;28;20174;-84
2021/12/07 02:24:22;;;;;;;22.00;16.27;;;2.50;99.90;;;;;;5055797;28;20212;-84
2021/12/07 02:26:48;;;;;;;23.37;16.47;;;2.50;99.90;;;;;;5054881;28;20202;-84
2021/12/07 02:29:15;;;;;;;23.73;15.63;;;2.50;99.90;;;;;;5055160;28;20264;-84
2021/12/07 02:31:41;;;;;;;20.17;15.87;;;2.50;99.90;;;;;;5054762;28;20185;-84
2021/12/07 02:34:07;;;;;;;21.57;16.23;;;2.50;99.90;;;;;;5054863;28;20201;-84
2021/12/07 02:36:34;;;;;;;21.13;16.67;;;2.50;99.90;;;;;;5055131;28;20294;-84
2021/12/07 02:39:00;;;;;;;21.20;16.27;;;2.50;99.90;;;;;;5054821;28;20189;-84
2021/12/07 02:41:26;;;;;;;21.97;16.43;;;2.40;99.90;;;;;;5055337;28;20182;-85
2021/12/07 02:43:51;;;;;;;23.93;16.47;;;2.40;99.90;;;;;;5055251;28;20182;-85
2021/12/07 02:46:17;;;;;;;21.53;16.27;;;2.50;99.90;;;;;;5054663;28;20221;-85
2021/12/07 02:48:43;;;;;;;21.80;15.73;;;2.50;99.90;;;;;;5054385;28;20182;-85
2021/12/07 02:51:09;;;;;;;22.77;16.10;;;2.50;99.90;;;;;;5055121;28;20269;-85
2021/12/07 02:53:36;;;;;;;21.43;15.43;;;2.50;99.90;;;;;;5054808;28;20592;-86
2021/12/07 02:56:05;;;;;;;20.60;14.90;;;2.50;99.90;;;;;;5055271;28;20225;-86
2021/12/07 02:58:31;;;;;;;20.47;14.70;;;2.50;99.90;;;;;;5054121;28;20182;-86
2021/12/07 03:01:05;;;;;;;20.80;15.90;;;2.50;99.90;;;;;;5055521;28;20177;-86
2021/12/07 03:03:36;;;;;;;21.70;15.20;;;2.50;99.90;;;;;;5054205;28;20170;-86
2021/12/07 03:06:18;;;;;;;19.63;13.90;;;2.50;99.90;;;;;;5053908;28;20199;-86
2021/12/07 03:27:52;;;;;;;17.03;13.77;;;2.40;99.90;;;;;;5055448;28;20174;-84
2021/12/07 03:30:18;;;;;;;17.70;13.40;;;2.50;99.90;;;;;;5053608;28;20174;-84
2021/12/07 03:32:44;;;;;;;17.47;13.80;;;2.50;99.90;;;;;;5053478;28;20205;-84
2021/12/07 03:35:09;;;;;;;19.53;13.23;;;2.50;99.90;;;;;;5053348;28;20700;-85
2021/12/07 03:37:35;;;;;;;18.43;14.13;;;2.50;99.90;;;;;;5054233;28;20214;-86
2021/12/07 03:40:01;;;;;;;16.60;12.80;;;2.40;99.90;;;;;;5053257;28;20181;-86
2021/12/07 03:42:26;;;;;;;16.97;13.13;;;2.40;99.90;;;;;;5053592;28;20178;-86
2021/12/07 03:44:52;;;;;;;14.90;12.07;;;2.50;99.90;;;;;;5053470;28;20177;-86
2021/12/07 03:47:17;;;;;;;13.43;11.23;;;2.50;99.90;;;;;;5054012;28;20249;-86
2021/12/07 03:49:43;;;;;;;15.17;11.83;;;2.40;99.90;;;;;;5053148;28;20189;-86
2021/12/07 03:52:09;;;;;;;13.77;11.57;;;2.40;99.90;;;;;;5053914;28;20190;-86
2021/12/07 03:54:34;;;;;;;13.03;11.03;;;2.50;99.90;;;;;;5053265;28;20255;-86
2021/12/07 03:57:00;;;;;;;13.40;11.10;;;2.50;99.90;;;;;;5052991;28;20202;-86
2021/12/07 03:59:26;;;;;;;12.63;10.60;;;2.50;99.90;;;;;;5053271;28;20178;-86
2021/12/07 04:01:52;;;;;;;14.17;10.47;;;2.50;99.90;;;;;;5052894;28;20178;-86
2021/12/07 04:04:19;;;;;;;12.83;10.50;;;2.50;99.90;;;;;;5052952;28;20273;-86
2021/12/07 04:06:44;;;;;;;11.47;9.77;;;2.40;99.90;;;;;;5053549;28;20198;-86
2021/12/07 04:09:10;;;;;;;12.07;9.33;;;2.40;99.90;;;;;;5053149;28;20201;-86
2021/12/07 04:11:35;;;;;;;14.30;9.23;;;2.40;99.90;;;;;;5052743;28;20181;-84
2021/12/07 04:14:01;;;;;;;10.00;8.13;;;2.40;99.90;;;;;;5052665;28;20201;-84
2021/12/07 04:16:27;;;;;;;9.60;8.30;;;2.40;99.90;;;;;;5052694;28;20204;-84
2021/12/07 04:18:53;;;;;;;10.07;8.77;;;2.40;99.90;;;;;;5053719;28;20185;-84
2021/12/07 04:21:18;;;;;;;9.80;8.40;;;2.50;99.90;;;;;;5052612;28;20178;-85
2021/12/07 04:23:44;;;;;;;9.90;8.90;;;2.40;99.90;;;;;;5052287;28;20183;-85
2021/12/07 04:26:12;;;;;;;9.37;8.20;;;2.50;99.90;;;;;;5052311;28;20209;-85
2021/12/07 04:28:38;;;;;;;9.03;7.87;;;2.50;99.90;;;;;;5053789;28;20208;-85
2021/12/07 04:31:05;;;;;;;8.00;7.20;;;2.50;99.90;;;;;;5052601;28;20178;-86
2021/12/07 04:33:31;;;;;;;8.60;7.27;;;2.50;99.90;;;;;;5052534;28;20246;-86
2021/12/07 04:35:57;;;;;;;8.47;7.37;;;2.50;99.90;;;;;;5052195;28;20297;-86
2021/12/07 04:38:23;;;;;;;9.53;8.53;;;2.50;99.90;;;;;;5052301;28;20273;-86
2021/12/07 04:40:48;;;;;;;9.00;7.20;;;2.50;99.90;;;;;;5052375;28;20178;-86
2021/12/07 04:43:14;;;;;;;8.37;7.47;;;2.50;99.90;;;;;;5052541;28;20227;-86
2021/12/07 04:58:52;;;;;;;8.30;7.40;;;2.60;99.90;;;;;;5053966;28;20197;-86
2021/12/07 05:01:18;;;;;;;8.03;7.10;;;2.60;99.90;;;;;;5052327;28;20183;-86
2021/12/07 05:03:45;;;;;;;8.60;7.70;;;2.60;99.90;;;;;;5052532;28;20265;-86
2021/12/07 05:06:12;;;;;;;7.93;6.93;;;2.60;99.90;;;;;;5052310;28;20202;-86
2021/12/07 05:08:44;;;;;;;7.70;6.90;;;2.60;99.90;;;;;;5053258;28;20171;-86
2021/12/07 05:13:58;;;;;;;7.67;6.83;;;2.70;99.90;;;;;;5053408;28;20182;-84
2021/12/07 05:23:55;;;;;;;8.60;7.67;;;2.70;99.90;;;;;;5053777;28;20173;-85
2021/12/07 05:25:24;;;;;;;7.50;6.70;;;2.60;99.90;;;;;;5053487;28;20560;-86
2021/12/07 05:38:33;;;;;;;7.77;7.00;;;2.70;99.90;;;;;;5057198;28;20656;-83
2021/12/07 05:40:59;;;;;;;9.17;6.93;;;2.80;99.90;;;;;;5055671;28;20205;-84
2021/12/07 05:43:25;;;;;;;7.17;6.47;;;2.80;99.90;;;;;;5055389;28;20181;-84
2021/12/07 05:45:50;;;;;;;6.23;5.63;;;2.80;99.90;;;;;;5055530;28;20210;-85
2021/12/07 05:48:16;;;;;;;6.80;6.20;;;2.80;99.90;;;;;;5056864;28;20195;-84
2021/12/07 05:50:43;;;;;;;6.67;6.07;;;2.80;99.90;;;;;;5055861;28;20279;-85
2021/12/07 05:53:11;;;;;;;7.43;6.20;;;2.80;99.90;;;;;;5055742;28;20271;-85
2021/12/07 05:55:37;;;;;;;7.87;5.50;;;2.80;99.90;;;;;;5055394;28;20221;-85
2021/12/07 05:58:07;;;;;;;6.50;5.90;;;2.80;99.90;;;;;;5055347;28;20174;-84
2021/12/07 06:00:57;;;;;;;9.10;6.37;;;2.80;99.90;;;;;;5055308;28;20163;-84
2021/12/07 06:03:24;;;;;;;6.50;5.60;;;2.90;99.90;;;;;;5056016;28;20178;-85
2021/12/07 06:05:50;;;;;;;10.83;6.27;;;2.70;99.90;;;;;;5055520;28;20202;-85
2021/12/07 06:08:15;;;;;;;6.03;5.47;;;2.80;99.90;;;;;;5055451;28;20702;-85
2021/12/07 06:10:41;;;;;;;6.57;5.90;;;2.80;99.90;;;;;;5055134;28;20178;-85
2021/12/07 06:13:07;;;;;;;7.00;5.77;;;2.70;99.90;;;;;;5055426;28;20185;-85
2021/12/07 06:15:36;;;;;;;6.50;5.27;;;2.70;99.90;;;;;;5054891;28;20324;-85
2021/12/07 06:18:02;;;;;;;5.50;5.00;;;2.70;99.90;;;;;;5055089;28;20189;-85
2021/12/07 06:20:28;;;;;;;8.60;5.73;;;2.70;99.90;;;;;;5054844;28;20179;-85
2021/12/07 06:22:54;;;;;;;8.03;5.33;;;2.70;99.90;;;;;;5054789;28;20239;-83
2021/12/07 06:25:19;;;;;;;5.97;5.20;;;2.70;99.90;;;;;;5054672;28;20293;-84
2021/12/07 06:27:45;;;;;;;5.43;4.93;;;2.70;99.90;;;;;;5054750;28;20182;-83
2021/12/07 06:30:12;;;;;;;5.87;5.37;;;2.70;99.90;;;;;;5055802;28;20282;-83
2021/12/07 06:32:52;;;;;;;5.70;5.07;;;2.70;99.90;;;;;;5054681;28;20186;-83
2021/12/07 06:35:17;;;;;;;20.13;16.53;;;2.70;99.90;;;;;;5054570;28;20198;-84
2021/12/07 06:37:43;;;;;;;9.30;8.40;;;2.70;99.90;;;;;;5056133;28;20178;-84
2021/12/07 06:40:10;;;;;;;8.13;7.33;;;2.60;99.90;;;;;;5055694;28;20653;-84
2021/12/07 06:42:38;;;;;;;13.20;11.80;;;2.60;99.90;;;;;;5055458;28;20182;-84
2021/12/07 06:45:08;;;;;;;11.80;10.70;;;2.60;99.90;;;;;;5054371;28;20228;-84
2021/12/07 06:47:57;;;;;;;10.60;9.60;;;2.60;99.90;;;;;;5054395;28;20182;-84
2021/12/07 06:50:23;;;;;;;7.13;6.53;;;2.60;99.90;;;;;;5054402;28;20170;-84
2021/12/07 06:52:49;;;;;;;7.40;6.70;;;2.60;99.90;;;;;;5054333;28;20182;-84
2021/12/07 06:55:15;;;;;;;7.00;6.33;;;2.60;99.90;;;;;;5054547;28;20210;-84
2021/12/07 06:57:55;;;;;;;7.40;6.70;;;2.70;99.90;;;;;;5054132;28;20185;-84
2021/12/07 07:00:21;;;;;;;7.43;6.83;;;2.80;99.90;;;;;;5055358;28;20162;-85
2021/12/07 07:02:47;;;;;;;6.57;5.97;;;2.80;99.90;;;;;;5054165;28;20180;-85
2021/12/07 07:05:13;;;;;;;6.17;5.53;;;2.80;99.90;;;;;;5053890;28;20178;-85
2021/12/07 07:07:40;;;;;;;9.23;6.90;;;2.80;99.90;;;;;;5054288;28;20209;-85
2021/12/07 07:10:09;;;;;;;6.03;5.43;;;2.80;99.90;;;;;;5053901;28;20188;-84
2021/12/07 07:12:34;;;;;;;7.33;5.20;;;2.80;99.90;;;;;;5053763;28;20242;-84
2021/12/07 07:15:00;;;;;;;5.53;5.03;;;2.70;99.90;;;;;;5053981;28;20292;-84
2021/12/07 07:17:29;;;;;;;6.60;6.00;;;2.80;99.90;;;;;;5053485;28;20649;-85
2021/12/07 07:19:54;;;;;;;6.43;5.33;;;2.80;99.90;;;;;;5053795;28;20246;-84
2021/12/07 07:22:20;;;;;;;6.03;5.53;;;2.70;99.90;;;;;;5053829;28;20220;-85
2021/12/07 07:24:46;;;;;;;4.00;3.70;;;2.80;99.90;;;;;;5053734;28;20225;-84
2021/12/07 07:27:11;;;;;;;5.60;3.70;;;2.80;99.90;;;;;;5054440;28;20209;-85
2021/12/07 07:29:37;;;;;;;3.90;3.60;;;2.90;99.90;;;;;;5054056;28;20209;-84
2021/12/07 07:32:03;;;;;;;4.97;3.37;;;2.90;99.90;;;;;;5053621;28;20181;-84
2021/12/07 07:34:29;;;;;;;6.43;5.80;;;2.90;99.90;;;;;;5053424;28;20210;-84
2021/12/07 07:36:55;;;;;;;4.47;4.07;;;2.90;99.90;;;;;;5054426;28;20256;-84
2021/12/07 07:39:21;;;;;;;4.23;3.70;;;3.00;99.90;;;;;;5053387;28;20182;-84
2021/12/07 07:41:47;;;;;;;4.80;4.40;;;3.00;99.90;;;;;;5054211;28;20174;-84
2021/12/07 07:44:13;;;;;;;4.77;4.37;;;3.00;99.90;;;;;;5053324;28;20188;-84
2021/12/07 07:46:38;;;;;;;6.43;5.20;;;3.10;99.90;;;;;;5053565;28;20205;-84
2021/12/07 07:49:04;;;;;;;10.70;9.53;;;3.10;99.90;;;;;;5052900;28;20663;-84
2021/12/07 07:51:31;;;;;;;9.33;5.73;;;3.10;99.90;;;;;;5052959;28;20178;-84
2021/12/07 07:53:59;;;;;;;7.17;5.63;;;3.10;99.90;;;;;;5052903;28;20206;-84
2021/12/07 07:56:25;;;;;;;4.33;4.03;;;3.10;99.90;;;;;;5052927;28;20209;-85
2021/12/07 07:58:51;;;;;;;4.00;3.70;;;3.00;99.90;;;;;;5053020;28;20186;-84
2021/12/07 08:01:16;;;;;;;3.07;2.87;;;3.10;99.90;;;;;;5053091;28;20276;-84
2021/12/07 08:03:42;;;;;;;3.00;2.80;;;3.10;99.90;;;;;;5052811;28;20178;-84
2021/12/07 08:06:08;;;;;;;3.57;2.53;;;3.10;99.90;;;;;;5052712;28;20256;-85
2021/12/07 08:08:33;;;;;;;2.50;2.30;;;3.10;99.90;;;;;;5052141;28;20189;-84
2021/12/07 08:10:59;;;;;;;3.33;2.40;;;3.10;99.90;;;;;;5052750;28;20193;-84
2021/12/07 08:13:25;;;;;;;3.00;2.67;;;3.20;99.90;;;;;;5052800;28;20187;-85
2021/12/07 08:15:50;;;;;;;2.80;2.60;;;3.20;99.90;;;;;;5052565;28;20249;-84
2021/12/07 08:18:16;;;;;;;2.80;2.60;;;3.30;99.90;;;;;;5053734;28;20668;-84
2021/12/07 08:20:43;;;;;;;2.90;2.70;;;3.20;99.90;;;;;;5053214;28;20190;-84
2021/12/07 08:23:10;;;;;;;4.63;3.00;;;3.30;99.90;;;;;;5052665;28;20177;-84
2021/12/07 08:25:39;;;;;;;2.77;2.57;;;3.30;99.90;;;;;;5052341;28;20252;-85
2021/12/07 08:28:11;;;;;;;3.87;2.90;;;3.30;99.90;;;;;;5052935;28;20265;-84
2021/12/07 08:30:38;;;;;;;3.07;2.87;;;3.40;99.90;;;;;;5053695;28;20177;-84
2021/12/07 08:33:04;;;;;;;3.57;2.87;;;3.50;99.90;;;;;;5052633;28;20220;-84
2021/12/07 08:35:30;;;;;;;2.67;2.10;;;3.50;99.90;;;;;;5053420;28;20210;-85
2021/12/07 08:37:56;;;;;;;3.60;2.17;;;3.60;99.90;;;;;;5052436;28;20181;-84
2021/12/07 08:40:25;;;;;;;2.43;2.27;;;3.60;99.90;;;;;;5052429;28;20173;-84
2021/12/07 08:42:51;;;;;;;2.37;2.17;;;3.70;99.90;;;;;;5053599;28;20188;-84
2021/12/07 08:45:19;;;;;;;2.30;2.10;;;3.70;99.90;;;;;;5052558;28;20185;-84
2021/12/07 08:47:45;;;;;;;2.27;2.07;;;3.80;99.90;;;;;;5052353;28;20186;-84
2021/12/07 08:50:21;;;;;;;2.20;1.93;;;3.90;99.90;;;;;;5052174;28;20182;-84
2021/12/07 08:52:48;;;;;;;3.30;3.00;;;4.00;99.90;;;;;;5052518;28;20268;-84
2021/12/07 09:00:30;;;;;;;14.63;10.90;;;4.30;99.90;;;;;;5054673;28;20632;-84
2021/12/07 09:02:56;;;;;;;6.80;6.07;;;4.10;99.90;;;;;;5059050;28;20174;-84
2021/12/07 09:05:23;;;;;;;7.90;6.20;;;4.00;99.90;;;;;;5058788;28;20233;-84
2021/12/07 09:07:50;;;;;;;4.67;4.23;;;4.00;99.90;;;;;;5058630;28;20206;-84
2021/12/07 09:10:16;;;;;;;4.67;3.37;;;3.90;99.90;;;;;;5059622;28;20206;-84
2021/12/07 09:12:42;;;;;;;7.40;6.00;;;3.90;99.90;;;;;;5064788;28;20182;-84
2021/12/07 09:15:08;;;;;;;4.60;4.20;;;3.90;99.90;;;;;;5062128;28;20205;-84
2021/12/07 09:17:35;;;;;;;3.00;2.80;;;3.90;99.90;;;;;;5061639;28;20174;-84
2021/12/07 09:20:04;;;;;;;4.60;2.57;;;4.00;99.90;;;;;;5061489;28;20170;-84
2021/12/07 09:22:29;;;;;;;1.93;1.83;;;3.90;99.90;;;;;;5061524;28;20281;-84
2021/12/07 09:24:55;;;;;;;2.57;1.27;;;3.90;99.90;;;;;;5061412;28;20209;-84
2021/12/07 09:27:21;;;;;;;1.50;1.40;;;4.00;99.90;;;;;;5061568;28;20202;-84
2021/12/07 09:29:47;;;;;;;2.37;2.17;;;4.10;99.90;;;;;;5061375;28;20193;-84
2021/12/07 09:32:12;;;;;;;2.00;1.90;;;4.20;99.90;;;;;;5060132;28;20185;-84
2021/12/07 09:34:38;;;;;;;1.70;1.60;;;4.20;99.90;;;;;;5059033;28;20671;-85
2021/12/07 09:37:04;;;;;;;2.70;1.57;;;4.40;99.90;;;;;;5057222;28;20198;-84
2021/12/07 09:39:29;;;;;;;1.10;1.10;;;4.50;99.90;;;;;;5058890;28;20174;-84
2021/12/07 09:41:55;;;;;;;4.33;1.10;;;4.60;99.90;;;;;;5056975;28;20213;-84
2021/12/07 09:44:22;;;;;;;7.17;1.57;;;4.60;99.90;;;;;;5057835;28;20205;-84
2021/12/07 09:46:48;;;;;;;1.63;1.53;;;4.50;99.90;;;;;;5056772;28;20202;-84
2021/12/07 09:49:14;;;;;;;2.20;2.10;;;4.60;99.90;;;;;;5057001;28;20668;-84
2021/12/07 09:51:46;;;;;;;2.60;2.40;;;4.50;99.90;;;;;;5056266;28;20167;-84
2021/12/07 09:54:13;;;;;;;1.93;1.83;;;4.50;99.90;;;;;;5057109;28;20214;-86
2021/12/07 09:56:57;;;;;;;4.77;4.10;;;4.60;99.90;;;;;;5056461;28;20206;-84
2021/12/07 09:59:23;;;;;;;3.43;3.07;;;4.60;99.90;;;;;;5056594;28;20173;-84
2021/12/07 10:01:49;;;;;;;5.07;4.67;;;4.80;99.90;;;;;;5056215;28;20197;-84
2021/12/07 10:04:15;;;;;;;4.57;4.17;;;4.90;99.90;;;;;;5057549;28;20178;-84
2021/12/07 10:06:40;;;;;;;2.57;2.10;;;4.80;99.90;;;;;;5055819;28;20198;-83
2021/12/07 10:09:06;;;;;;;1.50;1.33;;;4.70;99.90;;;;;;5056193;28;20177;-84
2021/12/07 10:11:32;;;;;;;3.40;1.80;;;4.70;99.90;;;;;;5055603;28;20205;-83
2021/12/07 10:13:58;;;;;;;1.83;1.73;;;4.60;99.90;;;;;;5056002;28;20637;-84
2021/12/07 10:16:24;;;;;;;1.87;1.47;;;4.50;99.90;;;;;;5056146;28;20198;-84
2021/12/07 10:18:50;;;;;;;1.70;1.60;;;4.60;99.90;;;;;;5056225;28;20201;-84
2021/12/07 10:21:23;;;;;;;3.80;2.70;;;4.60;99.90;;;;;;5056166;28;20641;-83
2021/12/07 10:23:51;;;;;;;2.00;1.90;;;4.60;99.90;;;;;;5055741;28;20170;-84
2021/12/07 10:26:29;;;;;;;2.07;1.80;;;4.50;99.90;;;;;;5057358;28;20222;-84
2021/12/07 10:29:21;;;;;;;5.00;2.30;;;4.40;99.90;;;;;;5056174;28;20228;-84
2021/12/07 10:31:55;;;;;;;2.03;1.90;;;4.40;99.90;;;;;;5055317;28;20626;-84
2021/12/07 10:34:23;;;;;;;3.07;2.50;;;4.50;99.90;;;;;;5055559;28;20189;-84
2021/12/07 10:37:10;;;;;;;2.57;2.10;;;4.50;99.90;;;;;;5054769;28;20194;-84
2021/12/07 10:39:43;;;;;;;2.30;2.10;;;4.60;99.90;;;;;;5055931;28;20182;-84
2021/12/07 10:42:13;;;;;;;2.30;2.10;;;4.40;99.90;;;;;;5054769;28;20162;-84
2021/12/07 10:44:40;;;;;;;2.23;2.13;;;4.50;99.90;;;;;;5054549;28;20240;-84
2021/12/07 10:47:10;;;;;;;2.60;2.40;;;4.60;99.90;;;;;;5055083;28;20210;-83
2021/12/07 10:49:46;;;;;;;2.20;2.10;;;4.60;99.90;;;;;;5054952;28;20167;-84
2021/12/07 10:52:17;;;;;;;2.50;2.30;;;4.60;99.90;;;;;;5056410;28;20188;-84
2021/12/07 10:55:01;;;;;;;2.67;2.40;;;4.70;99.90;;;;;;5055374;28;20232;-84
2021/12/07 10:57:35;;;;;;;2.93;2.40;;;4.70;99.90;;;;;;5054102;28;20261;-84
2021/12/07 11:00:20;;;;;;;3.20;2.60;;;4.80;99.90;;;;;;5054921;28;20198;-84
2021/12/07 11:03:07;;;;;;;3.03;2.73;;;4.80;99.90;;;;;;5054586;28;20184;-84
2021/12/07 11:05:50;;;;;;;5.97;3.33;;;4.90;99.90;;;;;;5053233;28;20209;-84
2021/12/07 11:08:18;;;;;;;4.67;4.10;;;5.10;99.90;;;;;;5054554;28;20170;-84
2021/12/07 11:10:48;;;;;;;6.90;4.00;;;5.20;99.90;;;;;;5053812;28;20182;-84
2021/12/07 11:13:26;;;;;;;5.93;5.27;;;5.20;99.90;;;;;;5054669;28;20170;-84
2021/12/07 11:15:59;;;;;;;5.00;4.53;;;5.30;99.90;;;;;;5055239;28;20292;-84
2021/12/07 11:18:26;;;;;;;10.07;6.97;;;5.20;99.90;;;;;;5055539;28;20187;-84
2021/12/07 11:20:55;;;;;;;12.50;9.30;;;5.20;99.90;;;;;;5054889;28;20208;-84
2021/12/07 11:23:28;;;;;;;13.50;11.60;;;5.10;99.90;;;;;;5054753;28;20178;-84
2021/12/07 11:31:29;;;;;;;11.60;7.17;;;4.90;99.90;;;;;;5056108;28;20169;-83
2021/12/07 11:34:06;;;;;;;11.17;7.40;;;4.70;99.90;;;;;;5052540;28;20205;-84
2021/12/07 11:36:36;;;;;;;20.80;11.10;;;4.60;99.90;;;;;;5053826;28;20229;-84
2021/12/07 11:39:17;;;;;;;16.10;10.17;;;4.60;99.90;;;;;;5053320;28;20186;-84
2021/12/07 11:41:42;;;;;;;9.70;5.87;;;4.50;99.90;;;;;;5053487;28;20174;-84
2021/12/07 11:44:08;;;;;;;11.40;5.30;;;4.40;99.90;;;;;;5053543;28;20179;-84
2021/12/07 11:46:37;;;;;;;8.20;5.40;;;4.40;99.90;;;;;;5054570;28;20195;-84
2021/12/07 11:49:28;;;;;;;11.07;5.50;;;4.40;99.90;;;;;;5053600;28;20228;-84
2021/12/07 11:51:56;;;;;;;10.30;5.60;;;4.40;99.90;;;;;;5049107;28;20648;-84
2021/12/07 11:54:25;;;;;;;13.47;5.87;;;4.40;99.90;;;;;;5054172;28;20214;-83
2021/12/07 11:56:52;;;;;;;11.13;5.40;;;4.40;99.90;;;;;;5054119;28;20685;-83
2021/12/07 11:59:17;;;;;;;8.13;6.13;;;4.50;99.90;;;;;;5054063;28;20183;-83
2021/12/07 12:01:45;;;;;;;9.80;5.67;;;4.50;99.90;;;;;;5054066;28;20228;-83
2021/12/07 12:04:11;;;;;;;9.27;5.77;;;4.60;99.90;;;;;;5054199;28;20246;-84
2021/12/07 12:06:38;;;;;;;11.03;5.90;;;4.60;99.90;;;;;;5053789;28;20279;-84
2021/12/07 12:09:04;;;;;;;8.07;5.53;;;4.50;99.90;;;;;;5053926;28;20182;-84
2021/12/07 12:11:42;;;;;;;9.17;4.83;;;4.60;99.90;;;;;;5053553;28;20166;-84
2021/12/07 12:14:26;;;;;;;10.60;5.50;;;4.50;99.90;;;;;;5054038;28;20177;-84
2021/12/07 12:17:17;;;;;;;9.50;5.57;;;4.50;99.90;;;;;;5053489;28;20372;-84
2021/12/07 12:20:02;;;;;;;14.50;5.63;;;4.40;99.90;;;;;;5054178;28;20185;-84
2021/12/07 12:22:37;;;;;;;13.27;5.57;;;4.30;99.90;;;;;;5054744;28;20214;-84
2021/12/07 12:25:13;;;;;;;10.70;5.30;;;4.20;99.90;;;;;;5053492;28;20204;-83
2021/12/07 12:27:41;;;;;;;13.10;6.10;;;4.20;99.90;;;;;;5053304;28;20184;-83
2021/12/07 12:30:29;;;;;;;8.27;5.27;;;4.20;99.90;;;;;;5053159;28;20181;-83
2021/12/07 12:33:10;;;;;;;10.53;4.80;;;4.20;99.90;;;;;;5053851;28;20174;-83
2021/12/07 12:35:48;;;;;;;13.47;5.40;;;4.20;99.90;;;;;;5053287;28;20210;-83
2021/12/07 12:38:16;;;;;;;10.70;5.07;;;4.20;99.90;;;;;;5053118;28;20181;-83
2021/12/07 12:40:41;;;;;;;9.90;5.60;;;4.30;99.90;;;;;;5052684;28;20190;-83
2021/12/07 12:43:40;;;;;;;11.90;5.80;;;4.30;99.90;;;;;;5053768;28;20177;-83
2021/12/07 12:46:09;;;;;;;15.30;7.30;;;4.40;99.90;;;;;;5052865;28;20198;-83
2021/12/07 12:48:35;;;;;;;14.87;7.40;;;4.50;99.90;;;;;;5052964;28;20319;-83
2021/12/07 12:51:01;;;;;;;11.77;6.63;;;4.60;99.90;;;;;;5053066;28;20206;-83
2021/12/07 12:53:31;;;;;;;15.77;6.10;;;4.60;99.90;;;;;;5053027;28;20197;-83
2021/12/07 12:56:05;;;;;;;9.77;6.57;;;4.70;99.90;;;;;;5052690;28;20226;-83
2021/12/07 12:58:31;;;;;;;8.30;5.40;;;4.60;99.90;;;;;;5053398;28;20174;-83
2021/12/07 13:00:59;;;;;;;7.77;5.10;;;4.60;99.90;;;;;;5052409;28;20648;-83
2021/12/07 13:03:25;;;;;;;11.17;5.87;;;4.50;99.90;;;;;;5052071;28;20182;-83
2021/12/07 13:06:00;;;;;;;11.03;6.00;;;4.30;99.90;;;;;;5052174;28;20198;-84
2021/12/07 13:08:26;;;;;;;13.67;5.77;;;4.20;99.90;;;;;;5051944;28;20173;-84
2021/12/07 13:10:55;;;;;;;11.97;5.63;;;4.30;99.90;;;;;;5052134;28;20272;-83
2021/12/07 13:13:33;;;;;;;7.50;4.93;;;4.30;99.90;;;;;;5052630;28;20200;-83
2021/12/07 13:16:11;;;;;;;8.73;6.00;;;4.40;99.90;;;;;;5051904;28;20279;-84
2021/12/07 13:18:40;;;;;;;11.77;5.13;;;4.50;99.90;;;;;;5051978;28;20223;-83
2021/12/07 13:21:26;;;;;;;11.17;5.30;;;4.60;99.90;;;;;;5053415;28;20175;-84
2021/12/07 13:24:07;;;;;;;12.37;8.00;;;4.70;99.90;;;;;;5051845;28;20189;-84
2021/12/07 13:26:35;;;;;;;17.40;11.63;;;4.90;99.90;;;;;;5051784;28;20232;-84
2021/12/07 13:29:09;;;;;;;16.07;8.23;;;4.80;99.90;;;;;;5051800;28;20250;-84
2021/12/07 13:31:39;;;;;;;15.47;7.87;;;4.70;99.90;;;;;;5051991;28;20166;-84
2021/12/07 13:34:07;;;;;;;36.67;23.70;;;4.60;99.90;;;;;;5051890;28;20174;-84
2021/12/07 13:36:58;;;;;;;31.17;21.40;;;4.60;99.90;;;;;;5051668;28;20194;-84
2021/12/07 13:39:24;;;;;;;20.33;11.30;;;4.60;99.90;;;;;;5052600;28;20162;-86
2021/12/07 13:41:54;;;;;;;28.57;20.63;;;4.60;99.90;;;;;;5051960;28;20261;-85
2021/12/07 13:44:20;;;;;;;20.80;16.43;;;4.60;99.90;;;;;;5052346;28;20221;-84
2021/12/07 13:46:46;;;;;;;23.40;16.17;;;4.60;99.90;;;;;;5051604;28;20199;-84
2021/12/07 13:49:13;;;;;;;21.80;14.80;;;4.50;99.90;;;;;;5052584;28;20194;-84
2021/12/07 13:51:40;;;;;;;19.03;11.17;;;4.50;99.90;;;;;;5051567;28;20182;-84
2021/12/07 13:54:13;;;;;;;13.53;10.40;;;4.50;99.90;;;;;;5052709;28;20194;-86
2021/12/07 13:56:40;;;;;;;15.27;9.83;;;4.50;99.90;;;;;;5051984;28;20265;-86
2021/12/07 13:59:07;;;;;;;18.97;13.80;;;4.50;99.90;;;;;;5054678;28;20202;-86
2021/12/07 14:01:35;;;;;;;21.20;14.87;;;4.50;99.90;;;;;;5055369;28;20257;-86
2021/12/07 14:04:03;;;;;;;17.77;13.53;;;4.50;99.90;;;;;;5054995;28;20186;-86
2021/12/07 14:06:30;;;;;;;18.53;14.80;;;4.50;99.90;;;;;;5055221;28;20209;-84
2021/12/07 14:09:07;;;;;;;16.07;10.90;;;4.50;99.90;;;;;;5055322;28;20264;-85
2021/12/07 14:11:34;;;;;;;13.53;10.03;;;4.50;99.90;;;;;;5055701;28;20170;-84
2021/12/07 14:14:00;;;;;;;16.27;10.67;;;4.40;99.90;;;;;;5055474;28;20162;-83
2021/12/07 14:16:27;;;;;;;16.93;10.07;;;4.40;99.90;;;;;;5055383;28;20252;-83
2021/12/07 14:18:54;;;;;;;15.83;8.53;;;4.40;99.90;;;;;;5055007;28;20209;-83
2021/12/07 14:21:20;;;;;;;7.20;5.10;;;4.40;99.90;;;;;;5055810;28;20181;-85
2021/12/07 14:23:50;;;;;;;11.03;5.37;;;4.50;99.90;;;;;;5054826;28;20174;-85
2021/12/07 14:26:25;;;;;;;10.03;5.30;;;4.40;99.90;;;;;;5056153;28;20187;-84
2021/12/07 14:29:07;;;;;;;15.93;7.30;;;4.40;99.90;;;;;;5056191;28;20205;-84
2021/12/07 14:31:40;;;;;;;12.00;6.77;;;4.40;99.90;;;;;;5055698;28;20170;-84
2021/12/07 14:34:08;;;;;;;12.27;7.67;;;4.40;99.90;;;;;;5054708;28;20181;-85
2021/12/07 14:36:43;;;;;;;14.00;7.70;;;4.40;99.90;;;;;;5054891;28;20240;-87
2021/12/07 14:39:14;;;;;;;9.70;5.23;;;4.40;99.90;;;;;;5054756;28;20224;-86
2021/12/07 14:42:02;;;;;;;12.53;5.70;;;4.40;99.90;;;;;;5055243;28;20262;-85